Time;durP1;ratioP1;P1;durP2;ratioP2;P2;SDS_P1;SDS_P2;PMS_P1;PMS_P2;Temp;Humidity;BMP_temperature;BMP_pressure;BME280_temperature;BME280_humidity;BME280_pressure;Samples;Min_cycle;Max_cycle;Signal;HPM_P1;HPM_P2
2022/06/11 00:01:17;;;;;;;4.73;3.27;;;;;;;15.67;79.55;98703.81;5013873;28;20668;-69
2022/06/11 00:03:44;;;;;;;4.17;3.47;;;;;;;15.68;79.05;98699.25;5014180;28;20241;-69
2022/06/11 00:06:11;;;;;;;4.60;3.17;;;;;;;15.63;79.66;98715.22;5013830;28;20207;-68
2022/06/11 00:08:39;;;;;;;6.13;3.50;;;;;;;15.57;79.94;98708.97;5013592;28;20230;-69
2022/06/11 00:11:07;;;;;;;5.73;3.73;;;;;;;15.44;79.88;98706.53;5013756;28;20210;-69
2022/06/11 00:13:35;;;;;;;5.00;3.33;;;;;;;15.48;80.57;98710.38;5013995;28;20207;-69
2022/06/11 00:16:02;;;;;;;3.90;3.33;;;;;;;15.52;80.48;98718.75;5013687;28;20305;-69
2022/06/11 00:18:29;;;;;;;4.70;3.40;;;;;;;15.47;80.38;98707.94;5013713;28;20226;-68
2022/06/11 00:20:56;;;;;;;6.17;3.63;;;;;;;15.38;81.02;98704.75;5013873;28;20238;-69
2022/06/11 00:23:22;;;;;;;4.80;3.30;;;;;;;15.34;81.88;98708.16;5014577;28;20204;-69
2022/06/11 00:25:49;;;;;;;5.10;3.73;;;;;;;15.30;82.17;98709.63;5013780;28;20222;-69
2022/06/11 00:28:16;;;;;;;5.20;3.80;;;;;;;15.34;82.16;98705.47;5013767;28;20317;-69
2022/06/11 00:30:43;;;;;;;5.83;3.80;;;;;;;15.30;82.92;98704.28;5013524;28;20696;-69
2022/06/11 00:33:09;;;;;;;5.20;3.60;;;;;;;15.27;82.80;98715.44;5013812;28;20206;-69
2022/06/11 00:35:38;;;;;;;5.30;3.53;;;;;;;15.29;83.43;98713.38;5013944;28;20297;-69
2022/06/11 00:38:05;;;;;;;6.23;3.93;;;;;;;15.21;83.71;98709.19;5013635;28;20313;-68
2022/06/11 00:40:34;;;;;;;6.17;3.80;;;;;;;15.16;83.54;98705.56;5013718;28;20302;-69
2022/06/11 00:43:01;;;;;;;5.13;3.70;;;;;;;15.19;83.76;98708.56;5013722;28;20217;-69
2022/06/11 00:45:35;;;;;;;4.73;3.70;;;;;;;15.17;84.97;98712.53;5014219;28;20297;-69
2022/06/11 00:48:07;;;;;;;6.20;4.10;;;;;;;15.20;84.77;98710.19;5014161;28;20421;-68
2022/06/11 00:50:40;;;;;;;8.73;4.00;;;;;;;15.22;83.81;98708.13;5017332;28;20552;-68
2022/06/11 00:53:24;;;;;;;4.50;3.80;;;;;;;15.18;84.19;98709.63;5017343;28;20278;-69
2022/06/11 00:55:51;;;;;;;6.67;3.60;;;;;;;15.22;84.20;98705.44;5017295;28;20282;-69
2022/06/11 00:58:34;;;;;;;7.00;4.00;;;;;;;15.14;84.38;98703.09;5017448;28;20286;-68
2022/06/11 01:01:01;;;;;;;6.00;3.70;;;;;;;15.11;85.23;98702.75;5017226;28;20197;-69
2022/06/11 01:03:41;;;;;;;5.70;3.80;;;;;;;15.14;84.81;98700.44;5017151;28;20216;-69
2022/06/11 01:06:32;;;;;;;6.13;3.90;;;;;;;15.13;84.47;98695.31;5017391;28;20186;-69
2022/06/11 01:09:04;;;;;;;6.83;3.70;;;;;;;15.06;84.27;98695.41;5017051;28;20234;-69
2022/06/11 01:11:49;;;;;;;8.60;4.10;;;;;;;14.96;84.58;98695.19;5017804;28;20282;-69
2022/06/11 01:14:28;;;;;;;4.87;3.57;;;;;;;14.89;85.11;98699.84;5017298;28;20278;-69
2022/06/11 01:17:19;;;;;;;8.50;3.73;;;;;;;14.98;84.37;98692.25;5016867;28;20221;-69
2022/06/11 01:20:00;;;;;;;9.07;4.17;;;;;;;14.96;85.49;98694.34;5017080;28;20261;-69
2022/06/11 01:22:47;;;;;;;6.03;3.73;;;;;;;14.94;85.58;98702.63;5016845;28;20658;-68
2022/06/11 01:25:27;;;;;;;7.17;3.87;;;;;;;14.94;85.29;98691.94;5017033;28;20191;-68
2022/06/11 01:28:15;;;;;;;5.80;3.90;;;;;;;14.91;85.26;98700.41;5017021;28;20321;-68
2022/06/11 01:30:57;;;;;;;4.93;3.80;;;;;;;14.88;85.18;98700.84;5016661;28;20286;-69
2022/06/11 01:33:41;;;;;;;7.47;4.13;;;;;;;14.90;85.32;98709.50;5016606;28;20642;-69
2022/06/11 01:36:16;;;;;;;5.77;4.07;;;;;;;14.84;86.30;98706.91;5016885;28;20281;-69
2022/06/11 01:39:02;;;;;;;5.10;3.70;;;;;;;14.80;86.55;98706.56;5016482;28;20664;-69
2022/06/11 01:41:38;;;;;;;5.37;4.03;;;;;;;14.72;86.90;98706.06;5016829;28;20219;-69
2022/06/11 01:44:14;;;;;;;6.67;3.87;;;;;;;14.73;87.20;98702.34;5016645;28;20285;-69
2022/06/11 01:46:45;;;;;;;4.57;3.90;;;;;;;14.73;86.37;98703.16;5016681;28;20289;-69
2022/06/11 01:49:20;;;;;;;7.10;3.60;;;;;;;14.79;85.91;98694.22;5016179;28;20634;-69
2022/06/11 01:51:56;;;;;;;5.97;3.80;;;;;;;14.83;86.01;98695.38;5016367;28;20289;-68
2022/06/11 01:54:38;;;;;;;4.90;3.90;;;;;;;14.84;85.68;98691.66;5016118;28;20261;-68
2022/06/11 01:57:51;;;;;;;4.93;3.30;;;;;;;14.83;85.38;98695.38;5016059;28;20706;-69
2022/06/11 02:00:26;;;;;;;4.90;3.20;;;;;;;14.88;85.36;98694.72;4955584;28;20729;-69
2022/06/11 02:02:52;;;;;;;8.00;3.97;;;;;;;14.88;85.15;98687.47;5007499;28;20210;-69
2022/06/11 02:05:29;;;;;;;5.50;3.37;;;;;;;14.83;85.22;98690.03;5016205;28;20210;-69
2022/06/11 02:07:58;;;;;;;5.17;3.20;;;;;;;14.81;85.38;98692.13;5015813;28;20775;-69
2022/06/11 02:10:34;;;;;;;4.70;3.70;;;;;;;14.82;85.16;98688.41;5016050;28;20254;-68
2022/06/11 02:13:08;;;;;;;4.17;3.23;;;;;;;14.80;85.47;98690.50;5015867;28;20205;-69
2022/06/11 02:15:40;;;;;;;5.07;3.47;;;;;;;14.82;85.17;98691.09;5016136;28;20289;-69
2022/06/11 02:18:12;;;;;;;5.50;3.33;;;;;;;14.78;84.72;98689.91;5016417;28;20237;-69
2022/06/11 02:20:44;;;;;;;4.87;3.30;;;;;;;14.73;85.49;98681.75;5015629;28;20277;-69
2022/06/11 02:23:21;;;;;;;4.00;3.17;;;;;;;14.73;85.79;98686.28;5014869;28;20191;-69
2022/06/11 02:25:52;;;;;;;5.97;3.57;;;;;;;14.80;84.61;98685.16;5015978;28;20197;-68
2022/06/11 02:28:24;;;;;;;4.03;3.23;;;;;;;14.67;85.79;98689.88;5015830;28;20313;-69
2022/06/11 02:30:53;;;;;;;6.43;3.40;;;;;;;14.63;85.39;98694.06;5015890;28;20270;-69
2022/06/11 02:33:21;;;;;;;6.60;3.83;;;;;;;14.63;86.05;98694.88;5015471;28;20210;-69
2022/06/11 02:35:50;;;;;;;4.97;3.57;;;;;;;14.65;85.55;98690.09;5015744;28;20301;-69
2022/06/11 02:38:21;;;;;;;4.53;3.20;;;;;;;14.66;86.13;98690.94;5015580;28;20317;-68
2022/06/11 02:40:52;;;;;;;4.07;3.20;;;;;;;14.59;86.51;98693.72;5015917;28;20206;-69
2022/06/11 02:43:19;;;;;;;3.67;3.33;;;;;;;14.63;85.53;98699.41;5015619;28;20194;-69
2022/06/11 02:45:47;;;;;;;5.17;3.53;;;;;;;14.60;86.11;98692.66;5015500;28;20207;-69
2022/06/11 02:48:15;;;;;;;4.93;3.43;;;;;;;14.56;85.82;98683.44;5015229;28;20294;-69
2022/06/11 02:50:42;;;;;;;6.17;3.20;;;;;;;14.57;86.31;98694.97;5015316;28;20230;-69
2022/06/11 02:53:10;;;;;;;6.37;3.20;;;;;;;14.52;85.28;98687.63;5015423;28;20217;-68
2022/06/11 02:55:39;;;;;;;3.23;2.93;;;;;;;14.53;84.72;98702.66;5015322;28;20334;-68
2022/06/11 02:58:08;;;;;;;3.90;3.37;;;;;;;14.47;84.58;98690.19;5014930;28;20313;-68
2022/06/11 03:00:39;;;;;;;3.97;2.83;;;;;;;14.50;84.71;98697.75;5016076;28;20206;-68
2022/06/11 03:03:06;;;;;;;3.70;3.20;;;;;;;14.44;85.20;98692.50;5014908;28;20596;-69
2022/06/11 03:05:35;;;;;;;3.47;2.77;;;;;;;14.47;84.26;98690.19;5014866;28;20728;-68
2022/06/11 03:08:02;;;;;;;3.17;2.80;;;;;;;14.46;84.43;98687.72;5014585;28;20584;-68
2022/06/11 03:10:30;;;;;;;3.20;2.90;;;;;;;14.42;84.81;98692.72;5015018;28;20221;-69
2022/06/11 03:12:57;;;;;;;5.57;3.07;;;;;;;14.40;84.62;98692.16;5014426;28;20662;-69
2022/06/11 03:15:25;;;;;;;3.60;3.30;;;;;;;14.34;84.88;98695.72;5014565;28;20213;-68
2022/06/11 03:17:53;;;;;;;4.27;3.17;;;;;;;14.35;86.10;98702.72;5014747;28;20226;-68
2022/06/11 03:20:22;;;;;;;6.40;3.20;;;;;;;14.31;86.09;98698.84;5014845;28;20241;-68
2022/06/11 03:22:49;;;;;;;5.03;3.27;;;;;;;14.28;86.23;98704.66;5015414;28;20551;-69
2022/06/11 03:25:16;;;;;;;3.60;2.93;;;;;;;14.28;86.50;98704.66;5014707;28;20211;-68
2022/06/11 03:27:44;;;;;;;3.43;2.90;;;;;;;14.22;87.29;98712.75;5014704;28;20624;-69
2022/06/11 03:30:14;;;;;;;3.50;3.20;;;;;;;14.23;86.95;98706.38;5014636;28;20218;-68
2022/06/11 03:32:41;;;;;;;3.97;2.97;;;;;;;14.25;86.01;98709.66;5014651;28;20199;-69
2022/06/11 03:35:08;;;;;;;4.07;3.10;;;;;;;14.23;86.57;98715.22;5014368;28;20217;-69
2022/06/11 03:37:35;;;;;;;3.17;2.90;;;;;;;14.24;85.54;98714.16;5013892;28;20214;-68
2022/06/11 03:40:03;;;;;;;4.80;2.97;;;;;;;14.13;86.89;98717.59;5014221;28;20666;-68
2022/06/11 03:42:30;;;;;;;4.47;3.30;;;;;;;14.12;87.50;98721.31;5014441;28;20214;-69
2022/06/11 03:44:56;;;;;;;4.30;3.27;;;;;;;14.13;86.92;98719.44;5014344;28;20293;-69
2022/06/11 03:47:23;;;;;;;5.53;3.00;;;;;;;14.12;86.75;98723.97;5014482;28;20213;-69
2022/06/11 03:49:49;;;;;;;6.40;3.17;;;;;;;14.13;85.94;98722.09;5014270;28;20226;-68
2022/06/11 03:52:15;;;;;;;2.97;2.70;;;;;;;14.15;85.71;98725.38;5013944;28;20214;-69
2022/06/11 03:54:43;;;;;;;4.17;2.87;;;;;;;14.11;86.43;98727.66;5014268;28;20210;-68
2022/06/11 03:57:09;;;;;;;4.00;2.97;;;;;;;14.17;86.26;98726.78;5014297;28;20242;-69
2022/06/11 03:59:36;;;;;;;3.77;2.97;;;;;;;14.22;86.20;98739.50;5014119;28;20230;-69
2022/06/11 04:02:03;;;;;;;3.67;3.03;;;;;;;14.26;86.01;98736.16;5013838;28;20708;-69
2022/06/11 04:04:29;;;;;;;6.73;3.13;;;;;;;14.30;85.61;98736.53;5014189;28;20312;-69
2022/06/11 04:06:58;;;;;;;3.93;3.20;;;;;;;14.32;83.81;98745.94;5014037;28;20206;-69
2022/06/11 04:09:26;;;;;;;3.33;3.03;;;;;;;14.31;83.28;98741.66;5013638;28;20238;-68
2022/06/11 04:11:53;;;;;;;3.60;2.63;;;;;;;14.38;84.40;98738.91;5013662;28;20212;-69
2022/06/11 04:14:19;;;;;;;4.17;2.80;;;;;;;14.39;82.65;98735.16;5013911;28;20202;-68
2022/06/11 04:16:58;;;;;;;5.40;2.70;;;;;;;14.43;82.30;98747.84;5013850;28;20260;-69
2022/06/11 04:19:36;;;;;;;3.93;2.90;;;;;;;14.47;82.25;98745.56;5013512;28;20234;-69
2022/06/11 04:22:04;;;;;;;4.73;2.70;;;;;;;14.53;81.66;98742.78;5013569;28;20277;-69
2022/06/11 04:24:32;;;;;;;4.40;3.20;;;;;;;14.48;81.93;98747.97;5013294;28;20301;-69
2022/06/11 04:27:00;;;;;;;3.10;2.70;;;;;;;14.51;81.79;98739.50;5014348;28;20208;-68
2022/06/11 04:29:31;;;;;;;3.10;2.77;;;;;;;14.49;81.78;98743.47;5013584;28;20592;-68
2022/06/11 04:31:59;;;;;;;2.73;2.30;;;;;;;14.57;81.76;98751.19;5013538;28;20286;-68
2022/06/11 04:34:28;;;;;;;4.37;2.80;;;;;;;14.62;81.03;98748.63;5013650;28;20301;-69
2022/06/11 04:36:56;;;;;;;4.40;2.90;;;;;;;14.58;81.06;98745.59;5013576;28;20300;-68
2022/06/11 04:39:26;;;;;;;5.67;3.00;;;;;;;14.58;81.18;98748.28;5013382;28;20772;-68
2022/06/11 04:41:53;;;;;;;4.03;3.30;;;;;;;14.66;80.92;98739.91;5014255;28;20194;-69
2022/06/11 04:44:21;;;;;;;3.07;2.70;;;;;;;14.72;81.00;98744.38;5013676;28;20210;-69
2022/06/11 04:46:48;;;;;;;3.70;2.97;;;;;;;14.74;81.08;98744.94;5014416;28;20213;-68
2022/06/11 04:49:15;;;;;;;3.37;2.63;;;;;;;14.85;80.90;98746.84;5013523;28;20316;-69
2022/06/11 04:51:43;;;;;;;6.63;2.90;;;;;;;14.89;80.35;98750.69;5013353;28;20299;-69
2022/06/11 04:54:10;;;;;;;5.03;3.03;;;;;;;14.92;80.43;98749.44;5013298;28;20682;-68
2022/06/11 04:56:36;;;;;;;3.00;2.70;;;;;;;14.89;80.23;98750.69;5013531;28;20209;-69
2022/06/11 04:59:03;;;;;;;4.53;2.73;;;;;;;14.97;79.64;98754.91;5013440;28;20232;-69
2022/06/11 05:01:30;;;;;;;5.10;3.00;;;;;;;15.18;78.50;98757.03;5014251;28;20207;-68
2022/06/11 05:03:57;;;;;;;4.53;3.47;;;;;;;15.02;78.68;98750.47;5013418;28;20301;-68
2022/06/11 05:06:27;;;;;;;4.67;2.90;;;;;;;15.13;79.16;98757.72;5013923;28;20293;-69
2022/06/11 05:08:54;;;;;;;4.87;2.87;;;;;;;15.53;77.73;98765.94;5013125;28;20230;-69
2022/06/11 05:11:21;;;;;;;3.50;2.40;;;;;;;15.76;76.40;98761.41;5012988;28;20804;-69
2022/06/11 05:13:47;;;;;;;6.80;3.10;;;;;;;16.03;75.20;98757.16;5013387;28;20206;-68
2022/06/11 05:16:15;;;;;;;3.23;2.57;;;;;;;16.80;72.77;98764.63;5013144;28;20203;-69
2022/06/11 05:18:42;;;;;;;4.53;2.80;;;;;;;17.21;69.93;98775.00;5013266;28;20230;-69
2022/06/11 05:21:08;;;;;;;3.70;2.50;;;;;;;17.58;68.40;98768.09;5013265;28;20301;-69
2022/06/11 05:23:35;;;;;;;3.20;2.20;;;;;;;18.40;65.13;98764.38;5013193;28;20293;-69
2022/06/11 05:26:01;;;;;;;3.87;2.60;;;;;;;17.99;65.95;98772.97;5013346;28;20297;-69
2022/06/11 05:28:31;;;;;;;3.00;2.47;;;;;;;18.34;64.06;98776.16;5013108;28;20578;-69
2022/06/11 05:30:58;;;;;;;4.07;2.50;;;;;;;17.89;66.85;98774.72;5013238;28;20222;-69
2022/06/11 05:33:25;;;;;;;2.80;2.20;;;;;;;17.77;66.86;98771.31;5013291;28;20237;-69
2022/06/11 05:35:52;;;;;;;6.30;2.37;;;;;;;17.50;66.37;98779.25;5016366;28;20202;-69
2022/06/11 05:38:22;;;;;;;2.77;2.57;;;;;;;17.33;70.61;98778.41;5016611;28;20321;-69
2022/06/11 05:40:50;;;;;;;4.80;2.50;;;;;;;17.29;70.04;98788.00;5016575;28;20222;-69
2022/06/11 05:43:17;;;;;;;2.90;2.50;;;;;;;17.24;70.51;98793.31;5016620;28;20203;-69
2022/06/11 05:45:50;;;;;;;4.53;2.60;;;;;;;17.26;69.38;98780.47;5016567;28;20218;-69
2022/06/11 05:48:19;;;;;;;4.23;2.63;;;;;;;17.46;70.00;98788.06;5016729;28;20229;-69
2022/06/11 05:50:49;;;;;;;4.37;2.90;;;;;;;17.30;69.10;98792.34;5016381;28;20237;-69
2022/06/11 05:53:19;;;;;;;3.73;2.40;;;;;;;17.62;67.79;98788.06;5016457;28;20285;-69
2022/06/11 05:55:48;;;;;;;2.90;2.60;;;;;;;17.43;68.68;98788.53;5016308;28;20305;-68
2022/06/11 05:58:19;;;;;;;3.30;2.40;;;;;;;17.51;69.41;98788.94;5016227;28;20222;-68
2022/06/11 06:00:46;;;;;;;5.67;3.10;;;;;;;17.40;68.83;98786.34;5016346;28;20187;-68
2022/06/11 06:03:13;;;;;;;4.70;2.60;;;;;;;17.66;69.22;98786.50;5016001;28;20572;-69
2022/06/11 06:05:40;;;;;;;5.43;2.77;;;;;;;17.60;69.50;98800.91;5016111;28;20214;-69
2022/06/11 06:08:08;;;;;;;3.77;2.67;;;;;;;17.66;68.26;98791.88;5015609;28;20238;-69
2022/06/11 06:10:35;;;;;;;4.67;2.80;;;;;;;17.74;67.51;98791.44;5015725;28;20797;-68
2022/06/11 06:13:45;;;;;;;3.90;2.87;;;;;;;17.78;67.65;98797.16;5016556;28;20210;-69
2022/06/11 06:15:51;;;;;;;3.53;2.67;;;;;;;17.70;67.26;98795.72;5015634;28;20221;-69
2022/06/11 06:18:18;;;;;;;3.17;2.87;;;;;;;17.74;68.50;98796.81;5015951;28;20648;-69
2022/06/11 06:20:44;;;;;;;4.23;2.40;;;;;;;17.87;67.16;98798.38;5015645;28;20750;-69
2022/06/11 06:23:10;;;;;;;3.97;2.60;;;;;;;18.14;66.34;98796.59;5016325;28;20213;-69
2022/06/11 06:25:37;;;;;;;3.37;2.57;;;;;;;18.18;65.59;98792.34;5015701;28;20293;-69
2022/06/11 06:28:03;;;;;;;3.60;2.73;;;;;;;18.10;66.14;98792.78;5015701;28;20318;-69
2022/06/11 06:30:30;;;;;;;2.50;2.30;;;;;;;18.12;66.62;98801.41;5016195;28;20222;-69
2022/06/11 06:32:56;;;;;;;2.67;2.43;;;;;;;18.13;66.78;98806.53;5015613;28;20301;-69
2022/06/11 06:35:22;;;;;;;3.13;2.50;;;;;;;18.22;66.72;98799.66;5015771;28;20551;-69
2022/06/11 06:37:49;;;;;;;2.70;2.30;;;;;;;18.30;67.07;98804.63;5015360;28;20606;-69
2022/06/11 06:40:15;;;;;;;4.10;2.37;;;;;;;18.54;65.96;98803.31;5015133;28;20211;-69
2022/06/11 06:42:42;;;;;;;4.80;2.90;;;;;;;18.52;66.17;98797.38;5015322;28;20635;-69
2022/06/11 06:45:09;;;;;;;3.63;2.30;;;;;;;18.51;65.58;98798.44;5015009;28;20299;-69
2022/06/11 06:47:35;;;;;;;3.83;2.30;;;;;;;18.73;65.80;98799.22;5014536;28;20302;-69
2022/06/11 06:50:03;;;;;;;4.97;2.50;;;;;;;18.72;65.01;98792.22;5015271;28;20309;-69
2022/06/11 06:52:30;;;;;;;3.30;2.70;;;;;;;18.73;65.32;98799.22;5014962;28;20666;-69
2022/06/11 06:54:56;;;;;;;2.60;2.27;;;;;;;18.82;63.73;98802.31;5014969;28;20207;-69
2022/06/11 06:57:23;;;;;;;5.67;2.47;;;;;;;18.91;63.40;98801.56;5015106;28;20210;-69
2022/06/11 06:59:49;;;;;;;6.93;2.87;;;;;;;18.88;63.21;98802.09;5014864;28;20550;-69
2022/06/11 07:02:16;;;;;;;4.80;2.30;;;;;;;18.92;62.97;98800.50;5014819;28;20320;-69
2022/06/11 07:04:42;;;;;;;5.47;2.50;;;;;;;19.06;62.64;98799.06;5014567;28;20301;-70
2022/06/11 07:07:15;;;;;;;2.50;2.23;;;;;;;19.18;63.18;98798.88;5014969;28;20297;-69
2022/06/11 07:09:42;;;;;;;4.00;2.63;;;;;;;19.21;62.96;98801.88;5014986;28;20234;-69
2022/06/11 07:12:08;;;;;;;5.87;2.33;;;;;;;19.22;62.64;98800.84;5014600;28;20293;-69
2022/06/11 07:14:35;;;;;;;4.43;2.90;;;;;;;19.33;61.94;98794.47;5014781;28;20664;-69
2022/06/11 07:17:06;;;;;;;2.50;2.30;;;;;;;19.17;61.37;98798.06;5014766;28;20210;-69
2022/06/11 07:19:38;;;;;;;2.67;2.20;;;;;;;19.28;61.28;98797.09;5013424;28;20237;-69
2022/06/11 07:22:12;;;;;;;4.27;2.30;;;;;;;19.29;61.28;98793.38;5014544;28;20794;-69
2022/06/11 07:24:42;;;;;;;7.40;2.47;;;;;;;19.41;60.68;98793.19;5014564;28;20198;-69
2022/06/11 07:27:15;;;;;;;5.33;2.50;;;;;;;19.53;60.44;98799.19;5014461;28;20206;-69
2022/06/11 07:29:46;;;;;;;3.10;2.03;;;;;;;19.48;59.76;98799.16;5014116;28;20314;-68
2022/06/11 07:32:17;;;;;;;3.73;2.10;;;;;;;19.66;59.43;98804.16;5014637;28;20187;-69
2022/06/11 07:34:44;;;;;;;3.90;2.20;;;;;;;19.86;60.71;98798.09;5014608;28;20274;-69
2022/06/11 07:37:11;;;;;;;3.30;1.90;;;;;;;19.93;60.31;98799.50;5014360;28;20207;-69
2022/06/11 07:39:37;;;;;;;3.67;1.97;;;;;;;20.15;59.67;98799.38;5013979;28;20601;-69
2022/06/11 07:42:05;;;;;;;3.83;2.10;;;;;;;20.55;59.92;98794.16;5014156;28;20661;-70
2022/06/11 07:44:31;;;;;;;2.33;2.10;;;;;;;20.79;56.59;98789.94;5013789;28;20207;-69
2022/06/11 07:46:58;;;;;;;2.87;2.20;;;;;;;20.97;55.19;98801.06;5014076;28;20202;-70
2022/06/11 07:49:24;;;;;;;2.97;1.83;;;;;;;21.00;55.53;98795.13;5013872;28;20226;-69
2022/06/11 07:51:51;;;;;;;3.87;2.20;;;;;;;21.00;55.94;98795.13;5013786;28;20341;-69
2022/06/11 07:54:17;;;;;;;4.97;1.90;;;;;;;21.31;53.70;98795.97;5013912;28;20284;-69
2022/06/11 07:56:44;;;;;;;5.00;2.20;;;;;;;21.18;53.77;98800.03;5013857;28;20214;-70
2022/06/11 07:59:10;;;;;;;4.37;2.10;;;;;;;21.45;52.39;98802.47;5013922;28;20318;-69
2022/06/11 08:01:37;;;;;;;3.47;1.80;;;;;;;21.30;53.29;98811.38;5013771;28;20222;-70
2022/06/11 08:04:03;;;;;;;9.17;7.90;;;;;;;21.41;52.92;98806.78;5013936;28;20294;-69
2022/06/11 08:06:31;;;;;;;3.43;1.80;;;;;;;21.53;52.91;98793.81;5013699;28;20212;-69
2022/06/11 08:08:58;;;;;;;4.67;2.10;;;;;;;21.61;50.57;98801.41;5013115;28;20253;-68
2022/06/11 08:11:24;;;;;;;4.13;2.47;;;;;;;21.20;50.97;98795.16;5013394;28;20233;-69
2022/06/11 08:13:51;;;;;;;4.10;2.20;;;;;;;21.27;51.37;98795.72;5013604;28;20203;-69
2022/06/11 08:16:17;;;;;;;3.63;1.93;;;;;;;21.53;50.13;98793.81;5013657;28;20311;-69
2022/06/11 08:18:45;;;;;;;4.43;1.80;;;;;;;21.83;49.64;98794.63;5013243;28;20226;-69
2022/06/11 08:21:11;;;;;;;3.87;2.00;;;;;;;21.53;50.55;98794.59;5013251;28;20214;-69
2022/06/11 08:23:39;;;;;;;4.13;1.77;;;;;;;22.00;48.61;98795.16;5012907;28;20206;-69
2022/06/11 08:26:06;;;;;;;3.23;1.97;;;;;;;21.76;49.98;98790.56;5013321;28;20207;-69
2022/06/11 08:28:32;;;;;;;2.37;1.63;;;;;;;21.80;50.04;98795.16;5012952;28;20237;-69
2022/06/11 08:30:58;;;;;;;5.83;2.10;;;;;;;22.09;50.74;98792.66;5012889;28;20664;-69
2022/06/11 08:33:25;;;;;;;3.47;1.80;;;;;;;22.47;48.83;98790.13;5013546;28;20301;-70
2022/06/11 08:35:51;;;;;;;4.13;1.83;;;;;;;22.35;48.19;98791.50;5013392;28;20305;-70
2022/06/11 08:38:18;;;;;;;3.50;1.77;;;;;;;22.47;46.72;98790.13;5010374;28;20340;-69
2022/06/11 08:40:50;;;;;;;2.53;1.67;;;;;;;22.78;45.97;98794.31;5012993;28;20624;-70
2022/06/11 08:43:22;;;;;;;4.45;2.08;;;;;;;22.49;46.89;98790.69;5010920;28;20211;-70
2022/06/11 08:46:10;;;;;;;3.35;1.70;;;;;;;22.51;47.31;98793.09;5004584;28;20289;-70
2022/06/11 08:48:58;;;;;;;3.63;1.88;;;;;;;22.77;45.56;98786.47;5008344;28;20587;-70
2022/06/11 08:51:44;;;;;;;3.08;1.75;;;;;;;22.77;46.35;98783.75;5013248;28;20207;-70
2022/06/11 08:54:15;;;;;;;2.92;1.60;;;;;;;22.53;47.68;98790.94;5012338;28;20206;-70
2022/06/11 08:56:47;;;;;;;6.18;1.60;;;;;;;22.80;46.96;98794.06;5011436;28;20586;-70
2022/06/11 08:59:51;;;;;;;2.95;1.90;;;;;;;22.74;47.49;98790.53;5011626;28;20589;-70
2022/06/11 09:02:26;;;;;;;4.65;1.92;;;;;;;22.81;47.00;98790.25;5012261;28;20204;-70
2022/06/11 09:04:59;;;;;;;3.40;2.05;;;;;;;23.08;45.84;98785.19;5005085;28;20285;-69
2022/06/11 09:07:57;;;;;;;3.63;1.90;;;;;;;23.27;45.99;98780.75;5012072;28;20213;-70
2022/06/11 09:10:39;;;;;;;3.75;1.50;;;;;;;23.50;45.67;98777.28;5014336;28;20684;-70
2022/06/11 09:13:14;;;;;;;4.80;2.33;;;;;;;23.36;44.96;98779.03;5016304;28;20191;-70
2022/06/11 09:15:46;;;;;;;4.10;1.88;;;;;;;23.48;46.91;98769.44;5010096;28;20212;-70
2022/06/11 09:18:48;;;;;;;4.03;1.95;;;;;;;23.49;45.18;98770.25;5016724;28;20313;-70
2022/06/11 09:21:27;;;;;;;3.88;2.00;;;;;;;23.54;45.59;98771.03;4993327;28;20281;-70
2022/06/11 09:24:22;;;;;;;6.95;1.88;;;;;;;23.13;44.02;98766.16;5014102;28;20206;-69
2022/06/11 09:27:01;;;;;;;5.72;1.92;;;;;;;23.33;43.66;98757.94;5014331;28;20214;-70
2022/06/11 09:29:42;;;;;;;3.85;1.73;;;;;;;23.55;42.50;98761.78;5014757;28;20222;-70
2022/06/11 09:32:39;;;;;;;2.85;1.83;;;;;;;23.66;43.23;98765.22;5016443;28;20225;-69
2022/06/11 09:35:13;;;;;;;3.17;1.50;;;;;;;23.65;44.15;98769.81;5006264;28;20207;-70
2022/06/11 09:38:03;;;;;;;4.32;1.90;;;;;;;23.66;43.35;98770.66;5014638;28;20198;-69
2022/06/11 09:40:49;;;;;;;3.30;1.50;;;;;;;23.35;44.79;98759.25;5014374;28;20199;-70
2022/06/11 09:43:37;;;;;;;4.55;2.05;;;;;;;22.93;44.41;98758.19;4996422;28;20223;-70
2022/06/11 09:46:31;;;;;;;6.38;2.22;;;;;;;22.79;43.71;98765.31;5011824;28;20209;-70
2022/06/11 09:49:16;;;;;;;4.60;1.80;;;;;;;23.58;43.50;98763.13;5012749;28;20321;-70
2022/06/11 09:51:58;;;;;;;4.72;1.73;;;;;;;24.17;43.37;98761.72;4995449;28;20211;-70
2022/06/11 09:54:40;;;;;;;5.55;1.98;;;;;;;24.29;42.20;98764.03;4999507;28;20292;-70
2022/06/11 09:57:24;;;;;;;5.60;1.60;;;;;;;24.65;41.63;98762.53;5013226;28;20299;-70
2022/06/11 10:00:03;;;;;;;3.60;1.98;;;;;;;24.82;40.97;98768.25;5004276;28;20203;-71
2022/06/11 10:02:45;;;;;;;3.45;1.73;;;;;;;23.78;41.81;98773.81;5015695;28;20614;-70
2022/06/11 10:05:57;;;;;;;3.50;1.67;;;;;;;23.90;41.98;98766.91;5014413;28;20198;-70
2022/06/11 10:08:42;;;;;;;3.72;1.58;;;;;;;24.45;42.27;98768.16;5002063;28;20244;-70
2022/06/11 10:11:20;;;;;;;4.63;2.20;;;;;;;24.51;41.42;98767.03;5014712;28;20305;-70
2022/06/11 10:13:49;;;;;;;3.67;2.08;;;;;;;25.03;41.79;98773.13;4996156;28;20711;-70
2022/06/11 10:16:42;;;;;;;3.45;1.95;;;;;;;25.07;40.19;98770.63;5009420;28;20230;-70
2022/06/11 10:19:52;;;;;;;4.57;1.77;;;;;;;23.95;41.74;98774.19;5013450;28;20321;-70
2022/06/11 10:22:30;;;;;;;3.00;1.60;;;;;;;24.27;43.20;98775.19;5003067;28;20202;-70
2022/06/11 10:25:21;;;;;;;3.25;1.92;;;;;;;24.75;42.44;98768.63;5015004;28;20297;-70
2022/06/11 10:28:05;;;;;;;4.07;2.00;;;;;;;24.78;41.59;98767.25;5013464;28;20594;-70
2022/06/11 10:31:10;;;;;;;4.40;2.08;;;;;;;25.15;42.79;98769.94;5015419;28;20290;-70
2022/06/11 10:33:48;;;;;;;3.40;2.10;;;;;;;24.59;41.24;98766.34;5000250;28;20210;-70
2022/06/11 10:36:39;;;;;;;4.03;2.20;;;;;;;24.79;39.23;98766.91;5014524;28;20675;-69
2022/06/11 10:39:19;;;;;;;3.60;1.80;;;;;;;24.81;41.78;98777.50;5014180;28;20325;-70
2022/06/11 10:42:07;;;;;;;4.55;2.03;;;;;;;23.89;40.72;98775.31;5015339;28;20241;-69
2022/06/11 10:44:41;;;;;;;4.85;2.30;;;;;;;23.72;42.33;98769.50;5012111;28;20286;-70
2022/06/11 10:47:30;;;;;;;4.07;1.80;;;;;;;24.07;42.10;98759.13;5015371;28;20302;-69
2022/06/11 10:50:12;;;;;;;3.25;1.70;;;;;;;24.19;42.34;98758.72;4995588;28;20299;-69
2022/06/11 10:52:48;;;;;;;4.80;2.17;;;;;;;23.99;42.92;98759.75;4997810;28;20969;-69
2022/06/11 10:55:23;;;;;;;4.05;2.13;;;;;;;23.66;43.03;98762.50;5013956;28;20294;-69
2022/06/11 10:57:52;;;;;;;3.08;1.85;;;;;;;23.89;45.08;98764.44;5013614;28;20222;-70
2022/06/11 11:00:27;;;;;;;3.30;1.88;;;;;;;24.32;44.23;98758.00;5013265;28;20217;-70
2022/06/11 11:03:13;;;;;;;2.72;1.70;;;;;;;24.54;42.81;98753.66;5012361;28;20289;-69
2022/06/11 11:06:17;;;;;;;4.45;2.03;;;;;;;24.46;41.30;98748.06;5013886;28;20207;-70
2022/06/11 11:08:55;;;;;;;3.90;1.58;;;;;;;24.37;42.11;98755.25;5013834;28;20238;-70
2022/06/11 11:11:23;;;;;;;3.13;1.65;;;;;;;24.46;41.83;98748.06;5014736;28;20317;-70
2022/06/11 11:14:05;;;;;;;3.58;1.90;;;;;;;24.64;40.68;98747.28;5013229;28;20610;-69
2022/06/11 11:16:36;;;;;;;3.10;2.17;;;;;;;24.73;41.83;98748.25;5013144;28;20284;-69
2022/06/11 11:19:21;;;;;;;4.80;2.38;;;;;;;24.92;40.87;98749.09;5012984;28;20241;-69
2022/06/11 11:22:10;;;;;;;4.55;2.08;;;;;;;24.77;40.70;98738.41;5014715;28;20195;-70
2022/06/11 11:24:41;;;;;;;2.97;1.80;;;;;;;24.83;41.79;98743.47;5011189;28;20213;-70
2022/06/11 11:27:13;;;;;;;5.28;1.77;;;;;;;24.94;41.59;98739.53;5007419;28;20217;-70
2022/06/11 11:29:49;;;;;;;5.78;1.98;;;;;;;25.08;41.19;98734.13;5011728;28;20613;-70
2022/06/11 11:32:47;;;;;;;3.28;1.80;;;;;;;25.02;41.05;98741.56;5014060;28;20210;-69
2022/06/11 11:35:18;;;;;;;4.63;2.00;;;;;;;25.42;39.89;98734.69;4988790;28;20310;-70
2022/06/11 11:37:47;;;;;;;5.78;2.30;;;;;;;24.99;39.32;98730.47;5011723;28;20318;-70
2022/06/11 11:40:30;;;;;;;4.65;2.20;;;;;;;25.10;40.42;98734.66;5014092;28;20633;-70
2022/06/11 11:43:02;;;;;;;4.63;1.80;;;;;;;25.07;39.45;98732.53;4994611;28;20282;-70
2022/06/11 11:45:43;;;;;;;3.15;1.85;;;;;;;25.21;40.67;98730.66;5002078;28;20202;-70
2022/06/11 11:48:15;;;;;;;3.08;1.80;;;;;;;25.17;39.56;98727.72;4999936;28;20230;-70
2022/06/11 11:50:43;;;;;;;5.07;1.92;;;;;;;25.20;40.68;98732.56;5012537;28;20642;-70
2022/06/11 11:53:09;;;;;;;4.88;1.60;;;;;;;25.24;40.18;98728.13;5012038;28;20226;-70
2022/06/11 11:55:38;;;;;;;4.25;1.80;;;;;;;25.02;39.03;98729.88;5012085;28;20293;-70
2022/06/11 11:58:17;;;;;;;3.55;2.05;;;;;;;25.40;38.25;98720.56;5010710;28;20313;-69
2022/06/11 12:01:01;;;;;;;2.90;2.13;;;;;;;25.22;39.39;98724.91;5012713;28;20202;-70